createdAt,value
2023-10-09T00:00:42.855Z,12.00
2023-10-09T00:03:30.406Z,9.58
2023-10-09T00:06:18.365Z,8.08
2023-10-09T00:09:15.142Z,9.68
2023-10-09T00:12:04.464Z,11.05
2023-10-09T00:14:54.144Z,11.63
2023-10-09T00:17:41.276Z,11.05
2023-10-09T00:20:30.519Z,12.50
2023-10-09T00:23:17.778Z,16.27
2023-10-09T00:26:12.634Z,11.70
2023-10-09T00:29:00.139Z,15.60
2023-10-09T00:31:49.092Z,11.68
2023-10-09T00:34:38.028Z,10.15
2023-10-09T00:37:26.690Z,8.43
2023-10-09T00:40:15.896Z,10.70
2023-10-09T00:43:06.212Z,17.52
2023-10-09T00:45:54.613Z,14.65
2023-10-09T00:48:42.493Z,12.50
2023-10-09T00:51:32.170Z,11.57
2023-10-09T00:54:21.126Z,11.45
2023-10-09T00:57:09.052Z,11.90
2023-10-09T01:00:04.483Z,11.30
2023-10-09T01:02:53.922Z,12.93
2023-10-09T01:05:42.700Z,11.22
2023-10-09T01:08:35.497Z,15.08
2023-10-09T01:11:24.091Z,15.38
2023-10-09T01:14:13.497Z,15.53
2023-10-09T01:17:02.488Z,12.20
2023-10-09T01:19:50.091Z,12.53
2023-10-09T01:22:37.725Z,13.05
2023-10-09T01:25:25.068Z,13.45
2023-10-09T01:28:14.536Z,13.95
2023-10-09T01:31:03.281Z,12.10
2023-10-09T01:33:50.610Z,11.88
2023-10-09T01:36:40.745Z,19.20
2023-10-09T01:39:29.619Z,15.70
2023-10-09T01:42:33.788Z,12.50
2023-10-09T01:45:22.696Z,13.70
2023-10-09T01:48:12.592Z,12.07
2023-10-09T01:51:01.237Z,17.23
2023-10-09T01:53:50.277Z,10.93
2023-10-09T01:56:38.991Z,13.40
2023-10-09T01:59:26.521Z,10.45
2023-10-09T02:02:27.595Z,13.53
2023-10-09T02:05:17.035Z,15.83
2023-10-09T02:08:06.363Z,17.37
2023-10-09T02:10:55.628Z,11.50
2023-10-09T02:13:43.845Z,13.50
2023-10-09T02:16:32.875Z,13.98
2023-10-09T02:19:33.643Z,13.50
2023-10-09T02:22:21.215Z,9.73
2023-10-09T02:25:10.856Z,18.23
2023-10-09T02:27:59.602Z,14.65
2023-10-09T02:30:51.501Z,11.30
2023-10-09T02:33:41.158Z,16.65
2023-10-09T02:36:29.963Z,13.93
2023-10-09T02:39:31.230Z,15.05
2023-10-09T02:42:23.083Z,18.23
2023-10-09T02:45:11.496Z,12.28
2023-10-09T02:48:00.870Z,17.73
2023-10-09T02:50:50.526Z,15.95
2023-10-09T02:53:37.866Z,19.90
2023-10-09T02:56:30.209Z,16.97
2023-10-09T02:59:17.710Z,14.93
2023-10-09T03:02:05.239Z,14.07
2023-10-09T03:04:54.174Z,15.32
2023-10-09T03:07:41.565Z,16.65
2023-10-09T03:10:28.715Z,15.15
2023-10-09T03:13:17.945Z,17.05
2023-10-09T03:16:05.132Z,18.40
2023-10-09T03:18:54.568Z,13.15
2023-10-09T03:21:42.200Z,18.98
2023-10-09T03:24:30.197Z,19.75
2023-10-09T03:27:17.501Z,14.60
2023-10-09T03:30:06.818Z,16.67
2023-10-09T03:32:56.401Z,19.40
2023-10-09T03:35:43.980Z,19.20
2023-10-09T03:38:43.725Z,15.10
2023-10-09T03:41:31.295Z,14.90
2023-10-09T03:44:21.517Z,17.92
2023-10-09T03:47:12.150Z,15.18
2023-10-09T03:50:01.431Z,14.83
2023-10-09T03:52:48.454Z,13.68
2023-10-09T03:55:39.762Z,13.20
2023-10-09T03:58:28.917Z,22.20
2023-10-09T04:01:25.454Z,15.88
2023-10-09T04:04:14.649Z,15.48
2023-10-09T04:07:04.135Z,12.07
2023-10-09T04:09:53.089Z,14.18
2023-10-09T04:12:40.647Z,12.37
2023-10-09T04:15:29.904Z,14.75
2023-10-09T04:18:17.410Z,16.23
2023-10-09T04:21:20.956Z,11.65
2023-10-09T04:24:17.321Z,12.70
2023-10-09T04:27:04.884Z,12.50
2023-10-09T04:29:52.206Z,13.28
2023-10-09T04:32:41.477Z,17.20
2023-10-09T04:35:32.002Z,13.88
2023-10-09T04:38:19.727Z,15.68
2023-10-09T04:41:11.041Z,17.25
2023-10-09T04:44:00.148Z,17.10
2023-10-09T04:47:10.017Z,17.52
2023-10-09T04:50:02.085Z,15.03
2023-10-09T04:52:55.377Z,13.10
2023-10-09T04:55:45.376Z,13.38
2023-10-09T04:58:34.252Z,16.70
2023-10-09T05:01:23.210Z,14.20
2023-10-09T05:04:12.341Z,16.87
2023-10-09T05:06:59.651Z,13.78
2023-10-09T05:09:48.568Z,15.80
2023-10-09T05:12:37.532Z,17.90
2023-10-09T05:15:27.091Z,14.15
2023-10-09T05:18:15.971Z,19.92
2023-10-09T05:21:04.830Z,21.40
2023-10-09T05:23:53.934Z,23.60
2023-10-09T05:26:51.552Z,13.98
2023-10-09T05:29:40.552Z,24.23
2023-10-09T05:32:35.752Z,20.37
2023-10-09T05:35:26.095Z,16.85
2023-10-09T05:38:18.032Z,19.02
2023-10-09T05:41:23.888Z,18.17
2023-10-09T05:44:29.764Z,15.05
2023-10-09T05:47:31.377Z,14.03
2023-10-09T05:50:20.488Z,23.47
2023-10-09T05:53:12.584Z,16.32
2023-10-09T05:56:17.913Z,21.10
2023-10-09T05:59:23.475Z,19.07
2023-10-09T06:02:29.614Z,16.97
2023-10-09T06:05:34.742Z,21.48
2023-10-09T06:08:30.483Z,17.50
2023-10-09T06:11:37.491Z,19.52
2023-10-09T06:14:33.583Z,17.60
2023-10-09T06:17:28.335Z,19.05
2023-10-09T06:20:28.929Z,19.48
2023-10-09T06:23:20.291Z,16.52
2023-10-09T06:26:08.863Z,19.87
2023-10-09T06:28:57.958Z,20.35
2023-10-09T06:31:49.684Z,27.40
2023-10-09T06:34:38.887Z,23.47
2023-10-09T06:37:28.121Z,22.37
2023-10-09T06:40:33.296Z,37.20
2023-10-09T06:43:24.429Z,20.00
2023-10-09T06:46:25.414Z,29.23
2023-10-09T06:49:20.436Z,27.37
2023-10-09T06:52:09.328Z,25.60
2023-10-09T06:54:58.138Z,22.02
2023-10-09T06:57:47.074Z,27.00
2023-10-09T07:00:51.977Z,28.07
2023-10-09T07:03:41.357Z,23.25
2023-10-09T07:06:39.676Z,35.13
2023-10-09T07:09:29.265Z,27.60
2023-10-09T07:12:23.932Z,20.82
2023-10-09T07:15:13.106Z,27.85
2023-10-09T07:18:02.106Z,29.82
2023-10-09T07:20:50.916Z,29.32
2023-10-09T07:23:39.828Z,26.42
2023-10-09T07:26:29.091Z,25.43
2023-10-09T07:29:20.592Z,24.63
2023-10-09T07:32:09.378Z,28.17
2023-10-09T07:34:58.297Z,23.90
2023-10-09T07:37:47.370Z,27.15
2023-10-09T07:40:36.648Z,22.75
2023-10-09T07:43:42.933Z,55.28
2023-10-09T07:46:48.563Z,32.70
2023-10-09T07:49:37.809Z,21.50
2023-10-09T07:52:26.698Z,22.95
2023-10-09T07:55:15.693Z,24.43
2023-10-09T07:58:04.509Z,22.30
2023-10-09T08:01:11.719Z,27.17
2023-10-09T08:04:00.620Z,28.83
2023-10-09T08:07:02.425Z,20.57
2023-10-09T08:09:50.051Z,28.47
2023-10-09T08:12:47.988Z,22.42
2023-10-09T08:15:39.668Z,26.65
2023-10-09T08:18:29.644Z,24.77
2023-10-09T08:21:18.970Z,21.80
2023-10-09T08:24:08.538Z,22.27
2023-10-09T08:26:57.707Z,32.30
2023-10-09T08:29:46.780Z,24.95
2023-10-09T08:35:35.026Z,45.58
2023-10-09T08:38:26.015Z,26.15
2023-10-09T08:41:22.146Z,21.27
2023-10-09T08:44:11.298Z,20.15
2023-10-09T08:46:59.041Z,19.95
2023-10-09T08:49:47.426Z,24.63
2023-10-09T08:52:36.468Z,25.55
2023-10-09T08:55:24.106Z,20.68
2023-10-09T08:58:28.322Z,20.35
2023-10-09T09:01:18.935Z,18.05
2023-10-09T09:04:08.881Z,23.15
2023-10-09T09:06:56.440Z,21.97
2023-10-09T09:09:47.038Z,17.17
2023-10-09T09:12:35.976Z,24.63
2023-10-09T09:15:25.076Z,21.85
2023-10-09T09:18:14.136Z,24.85
2023-10-09T09:21:01.868Z,22.42
2023-10-09T09:23:58.817Z,25.08
2023-10-09T09:26:46.651Z,27.10
2023-10-09T09:29:42.882Z,19.55
2023-10-09T09:32:33.552Z,21.65
2023-10-09T09:35:21.209Z,17.62
2023-10-09T09:38:09.192Z,23.05
2023-10-09T09:41:01.632Z,26.90
2023-10-09T09:43:49.299Z,23.70
2023-10-09T09:46:38.663Z,30.72
2023-10-09T09:49:28.691Z,23.38
2023-10-09T09:52:17.599Z,17.62
2023-10-09T09:55:04.916Z,21.93
2023-10-09T09:57:55.325Z,19.87
2023-10-09T10:00:44.668Z,23.05
2023-10-09T10:03:35.160Z,24.02
2023-10-09T10:06:25.682Z,34.15
2023-10-09T10:09:34.639Z,20.35
2023-10-09T10:12:42.721Z,19.48
2023-10-09T10:15:59.231Z,25.15
2023-10-09T10:19:14.860Z,21.62
2023-10-09T10:22:07.557Z,19.73
2023-10-09T10:24:56.596Z,22.62
2023-10-09T10:27:48.596Z,17.42
2023-10-09T10:30:37.510Z,21.23
2023-10-09T10:33:27.017Z,15.20
2023-10-09T10:36:16.191Z,20.60
2023-10-09T10:39:07.983Z,19.37
2023-10-09T10:41:58.348Z,24.63
2023-10-09T10:44:46.139Z,18.50
2023-10-09T10:47:35.094Z,22.95
2023-10-09T10:50:33.784Z,21.33
2023-10-09T10:53:21.199Z,18.65
2023-10-09T10:56:10.124Z,17.60
2023-10-09T10:59:08.158Z,23.25
2023-10-09T11:02:03.358Z,25.77
2023-10-09T11:04:57.251Z,19.17
2023-10-09T11:07:45.093Z,26.40
2023-10-09T11:10:33.098Z,21.33
2023-10-09T11:13:35.286Z,20.62
2023-10-09T11:16:25.807Z,19.12
2023-10-09T11:19:35.636Z,24.65
2023-10-09T11:22:33.968Z,15.00
2023-10-09T11:25:21.121Z,17.05
2023-10-09T11:28:32.393Z,20.60
2023-10-09T11:31:19.869Z,21.02
2023-10-09T11:34:10.331Z,21.73
2023-10-09T11:37:03.344Z,19.45
2023-10-09T11:39:57.878Z,17.75
2023-10-09T11:42:50.731Z,13.85
2023-10-09T11:45:39.110Z,18.35
2023-10-09T11:48:30.958Z,21.07
2023-10-09T11:51:22.374Z,23.30
2023-10-09T11:54:10.175Z,14.65
2023-10-09T11:56:57.699Z,22.70
2023-10-09T11:59:46.125Z,15.40
2023-10-09T12:02:33.947Z,14.47
2023-10-09T12:05:21.627Z,17.48
2023-10-09T12:08:09.773Z,12.90
2023-10-09T12:10:58.497Z,19.67
2023-10-09T12:13:47.163Z,17.10
2023-10-09T12:16:34.686Z,14.30
2023-10-09T12:19:23.501Z,15.48
2023-10-09T12:22:15.673Z,17.35
2023-10-09T12:25:04.592Z,12.65
2023-10-09T12:27:53.376Z,14.85
2023-10-09T12:30:43.904Z,11.43
2023-10-09T12:33:32.015Z,12.63
2023-10-09T12:36:21.365Z,11.38
2023-10-09T12:39:10.889Z,12.30
2023-10-09T12:41:59.794Z,14.28
2023-10-09T12:44:47.143Z,13.50
2023-10-09T12:47:34.610Z,13.83
2023-10-09T12:50:23.321Z,11.50
2023-10-09T12:53:11.201Z,13.00
2023-10-09T12:55:58.839Z,15.90
2023-10-09T12:58:47.977Z,10.90
2023-10-09T13:01:44.621Z,12.78
2023-10-09T13:04:33.993Z,15.95
2023-10-09T13:07:23.323Z,15.05
2023-10-09T13:10:12.771Z,15.08
2023-10-09T13:13:00.070Z,13.03
2023-10-09T13:15:47.728Z,12.78
2023-10-09T13:18:36.125Z,15.25
2023-10-09T13:21:37.805Z,11.90
2023-10-09T13:24:26.726Z,16.55
2023-10-09T13:27:15.184Z,14.45
2023-10-09T13:30:04.862Z,10.10
2023-10-09T13:32:52.671Z,11.03
2023-10-09T13:35:41.543Z,14.07
2023-10-09T13:38:28.940Z,12.47
2023-10-09T13:41:18.196Z,10.43
2023-10-09T13:44:06.081Z,9.78
2023-10-09T13:46:54.378Z,11.55
2023-10-09T13:49:43.850Z,9.18
2023-10-09T13:52:31.932Z,14.63
2023-10-09T13:55:19.476Z,12.93
2023-10-09T13:58:07.089Z,9.80
2023-10-09T14:00:57.184Z,12.18
2023-10-09T14:03:46.440Z,13.00
2023-10-09T14:06:33.765Z,8.73
2023-10-09T14:09:31.852Z,14.68
2023-10-09T14:12:20.670Z,8.93
2023-10-09T14:15:11.298Z,12.15
2023-10-09T14:17:58.861Z,14.65
2023-10-09T14:21:09.965Z,14.90
2023-10-09T14:23:58.803Z,24.02
2023-10-09T14:26:48.000Z,9.45
2023-10-09T14:29:36.920Z,12.07
2023-10-09T14:32:25.902Z,9.45
2023-10-09T14:35:16.102Z,12.33
2023-10-09T14:38:06.885Z,12.78
2023-10-09T14:40:55.863Z,11.83
2023-10-09T14:43:43.364Z,11.57
2023-10-09T14:46:31.450Z,8.70
2023-10-09T14:49:20.830Z,18.62
2023-10-09T14:52:09.816Z,11.65
2023-10-09T14:54:58.946Z,14.43
2023-10-09T14:57:46.305Z,11.12
2023-10-09T15:00:42.565Z,8.60
2023-10-09T15:03:31.927Z,10.82
2023-10-09T15:06:19.382Z,10.18
2023-10-09T15:09:10.288Z,12.20
2023-10-09T15:11:57.607Z,12.37
2023-10-09T15:14:46.103Z,11.28
2023-10-09T15:17:33.845Z,12.70
2023-10-09T15:20:22.116Z,10.10
2023-10-09T15:23:10.598Z,15.70
2023-10-09T15:25:58.225Z,11.95
2023-10-09T15:28:45.931Z,15.83
2023-10-09T15:31:34.067Z,18.55
2023-10-09T15:34:22.714Z,10.85
2023-10-09T15:37:10.001Z,10.20
2023-10-09T15:39:58.235Z,10.10
2023-10-09T15:42:48.577Z,13.25
2023-10-09T15:45:38.970Z,17.82
2023-10-09T15:48:26.166Z,11.93
2023-10-09T15:51:16.923Z,10.18
2023-10-09T15:54:04.692Z,12.00
2023-10-09T15:57:06.473Z,17.00
2023-10-09T15:59:40.886Z,10.95
2023-10-09T16:02:28.543Z,12.20
2023-10-09T16:05:18.217Z,8.83
2023-10-09T16:08:06.243Z,14.07
2023-10-09T16:10:53.707Z,10.70
2023-10-09T16:13:41.026Z,12.68
2023-10-09T16:16:34.102Z,16.87
2023-10-09T16:19:24.701Z,12.53
2023-10-09T16:22:13.860Z,9.50
2023-10-09T16:25:02.398Z,9.15
2023-10-09T16:27:51.548Z,10.48
2023-10-09T16:30:39.119Z,11.08
2023-10-09T16:33:27.635Z,10.90
2023-10-09T16:36:15.281Z,11.95
2023-10-09T16:39:04.126Z,16.65
2023-10-09T16:41:51.624Z,11.12
2023-10-09T16:44:39.173Z,10.82
2023-10-09T16:47:26.412Z,17.52
2023-10-09T16:50:14.978Z,11.10
2023-10-09T16:53:04.034Z,13.25
2023-10-09T16:55:53.127Z,9.68
2023-10-09T16:58:42.617Z,11.73
2023-10-09T17:01:31.892Z,9.60
2023-10-09T17:04:21.037Z,11.93
2023-10-09T17:07:09.931Z,11.33
2023-10-09T17:09:57.456Z,17.00
2023-10-09T17:12:48.419Z,11.73
2023-10-09T17:15:39.047Z,16.00
2023-10-09T17:18:28.313Z,12.68
2023-10-09T17:21:17.013Z,13.10
2023-10-09T17:24:06.869Z,12.25
2023-10-09T17:26:55.862Z,10.53
2023-10-09T17:29:44.146Z,10.65
2023-10-09T17:32:33.392Z,10.85
2023-10-09T17:35:20.987Z,10.95
2023-10-09T17:38:09.923Z,11.83
2023-10-09T17:40:58.611Z,12.88
2023-10-09T17:43:46.521Z,10.13
2023-10-09T17:46:34.158Z,9.85
2023-10-09T17:49:22.900Z,10.60
2023-10-09T17:52:11.723Z,12.75
2023-10-09T17:55:00.915Z,14.63
2023-10-09T17:57:50.159Z,13.03
2023-10-09T18:00:40.689Z,13.50
2023-10-09T18:03:29.693Z,13.22
2023-10-09T18:06:18.859Z,11.73
2023-10-09T18:09:07.814Z,14.55
2023-10-09T18:11:56.507Z,15.03
2023-10-09T18:14:45.662Z,18.75
2023-10-09T18:17:35.147Z,17.15
2023-10-09T18:20:22.883Z,14.47
2023-10-09T18:23:12.032Z,14.18
2023-10-09T18:26:01.278Z,20.10
2023-10-09T18:28:49.208Z,15.83
2023-10-09T18:31:41.866Z,14.60
2023-10-09T18:34:30.532Z,16.90
2023-10-09T18:37:20.098Z,15.53
2023-10-09T18:40:13.339Z,12.73
2023-10-09T18:43:01.266Z,18.32
2023-10-09T18:45:49.696Z,13.75
2023-10-09T18:48:36.889Z,16.48
2023-10-09T18:51:24.525Z,15.28
2023-10-09T18:54:13.288Z,18.45
2023-10-09T18:57:00.849Z,14.38
2023-10-09T18:59:49.218Z,15.70
2023-10-09T19:02:36.491Z,12.75
2023-10-09T19:05:24.966Z,12.93
2023-10-09T19:08:13.794Z,13.60
2023-10-09T19:11:02.404Z,15.68
2023-10-09T19:13:49.987Z,11.33
2023-10-09T19:16:37.231Z,13.20
2023-10-09T19:21:56.521Z,12.85
2023-10-09T19:24:44.385Z,15.75
2023-10-09T19:27:31.984Z,14.98
2023-10-09T19:30:21.007Z,15.78
2023-10-09T19:33:08.742Z,22.32
2023-10-09T19:36:00.238Z,16.87
2023-10-09T19:38:51.969Z,13.20
2023-10-09T19:41:39.351Z,16.23
2023-10-09T19:44:28.605Z,14.58
2023-10-09T19:47:16.375Z,14.98
2023-10-09T19:50:05.255Z,13.68
2023-10-09T19:52:53.062Z,18.50
2023-10-09T19:55:44.144Z,13.22
2023-10-09T19:58:31.731Z,14.93
2023-10-09T20:01:19.954Z,15.60
2023-10-09T20:04:07.837Z,18.02
2023-10-09T20:06:55.193Z,13.05
2023-10-09T20:09:42.620Z,14.70
2023-10-09T20:12:31.070Z,11.38
2023-10-09T20:15:20.110Z,11.50
2023-10-09T20:18:08.161Z,14.70
2023-10-09T20:20:55.966Z,14.20
2023-10-09T20:23:43.742Z,12.23
2023-10-09T20:26:31.447Z,12.00
2023-10-09T20:29:19.081Z,16.55
2023-10-09T20:32:11.264Z,13.65
2023-10-09T20:34:58.603Z,14.73
2023-10-09T20:37:46.686Z,10.20
2023-10-09T20:40:34.308Z,13.60
2023-10-09T20:43:22.236Z,12.65
2023-10-09T20:46:12.179Z,15.13
2023-10-09T20:49:00.437Z,12.58
2023-10-09T20:51:57.168Z,13.22
2023-10-09T20:54:37.164Z,10.13
2023-10-09T20:57:24.850Z,12.47
2023-10-09T21:00:14.942Z,11.68
2023-10-09T21:03:02.962Z,10.15
2023-10-09T21:05:53.107Z,13.10
2023-10-09T21:08:41.469Z,18.02
2023-10-09T21:11:28.926Z,12.70
2023-10-09T21:14:18.159Z,15.20
2023-10-09T21:17:05.737Z,14.05
2023-10-09T21:19:53.116Z,14.70
2023-10-09T21:22:42.773Z,16.05
2023-10-09T21:25:31.920Z,16.30
2023-10-09T21:28:19.968Z,13.88
2023-10-09T21:31:08.507Z,16.50
2023-10-09T21:33:56.989Z,13.78
2023-10-09T21:36:44.592Z,14.98
2023-10-09T21:39:31.719Z,18.73
2023-10-09T21:42:19.621Z,23.25
2023-10-09T21:45:08.363Z,16.23
2023-10-09T21:47:57.003Z,14.35
2023-10-09T21:50:44.596Z,13.50
2023-10-09T21:53:31.916Z,12.88
2023-10-09T21:56:21.068Z,16.07
2023-10-09T21:59:10.695Z,14.40
2023-10-09T22:01:58.034Z,14.93
2023-10-09T22:04:47.780Z,14.60
2023-10-09T22:07:35.118Z,14.65
2023-10-09T22:10:22.662Z,12.28
2023-10-09T22:13:12.129Z,17.00
2023-10-09T22:15:59.691Z,18.67
2023-10-09T22:18:49.835Z,17.95
2023-10-09T22:21:37.230Z,15.95
2023-10-09T22:24:24.915Z,12.58
2023-10-09T22:27:13.987Z,18.75
2023-10-09T22:30:03.258Z,11.93
2023-10-09T22:32:50.634Z,12.18
2023-10-09T22:35:39.583Z,18.25
2023-10-09T22:38:28.460Z,13.45
2023-10-09T22:41:17.602Z,15.75
2023-10-09T22:44:06.549Z,16.85
2023-10-09T22:46:55.321Z,15.43
2023-10-09T22:49:44.390Z,14.58
2023-10-09T22:52:33.144Z,19.23
2023-10-09T22:55:22.206Z,19.05
2023-10-09T22:58:11.535Z,14.40
2023-10-09T23:01:02.271Z,16.35
2023-10-09T23:04:12.524Z,17.80
2023-10-09T23:07:01.887Z,16.57
2023-10-09T23:09:51.957Z,17.77
2023-10-09T23:12:41.329Z,13.28
2023-10-09T23:15:31.841Z,16.70
2023-10-09T23:18:34.878Z,20.90
2023-10-09T23:21:23.841Z,16.25
2023-10-09T23:24:11.844Z,15.58
2023-10-09T23:26:59.494Z,16.32
2023-10-09T23:29:48.401Z,18.55
2023-10-09T23:32:38.088Z,22.80
2023-10-09T23:35:26.998Z,17.70
2023-10-09T23:38:21.950Z,14.05
2023-10-09T23:41:13.064Z,16.32
2023-10-09T23:44:00.995Z,16.10
2023-10-09T23:46:50.011Z,19.45
2023-10-09T23:49:40.584Z,17.42
2023-10-09T23:52:29.700Z,16.40
2023-10-09T23:55:18.878Z,14.30
2023-10-09T23:58:08.008Z,13.55
